Terminal Aerodrome Forecast
Issued by NWS

Home | Current Version | Previous Version | Text Only | Print | Product List | Glossary On
Versions: 1 2 3 4 5 6 7 8 9 10 11 12 13 14 15 16 17 18 19 20 21 22 23 24 25 26 27 28
000
FTUS41 KBUF 181100
TAFJHW
TAF
KJHW 181139Z 1812/1912 23008KT P6SM FEW250
     FM181500 28012KT P6SM FEW050 FEW250
     FM181800 32014G20KT P6SM FEW050 SCT250
     FM182100 36012KT P6SM FEW050 FEW250
     FM190200 04008KT P6SM SKC
     FM190800 09008KT P6SM SKC
      AMD LTD TO CLD VIS AND WIND=

USA.gov is the U.S. government's official web portal to all federal, state and local government web resources and services.